This is the latest recevied weather packets stored in our database for station/object WA7CUG. If no packets are shown the sender has not sent any weather packets the latest 1 day(s).
| Time | Temp. | Humidity | Pressure | Rain* | Wind** | Luminosity | Snow |
|---|---|---|---|---|---|---|---|
| 1777995508 | 18.89° C | 50% | 1014 hPa | 0 mm | 0 m/s | 52 W/m² | - |
| 1777995205 | 19.44° C | 51% | 1013.9 hPa | 0 mm | 0.45 m/s, 155° | 54 W/m² | - |
| 1777994902 | 18.89° C | 48% | 1013.9 hPa | 0 mm | 0.45 m/s, 160° | 51 W/m² | - |
| 1777994599 | 18.33° C | 49% | 1014 hPa | 0 mm | 0.45 m/s, 141° | 234 W/m² | - |
| 1777994294 | 17.78° C | 50% | 1014.1 hPa | 0 mm | 0.45 m/s, 160° | 211 W/m² | - |
| 1777993991 | 18.33° C | 51% | 1013.8 hPa | 0 mm | 0.45 m/s, 140° | 223 W/m² | - |
| 1777993688 | 18.89° C | 52% | 1014 hPa | 0 mm | 0 m/s | 49 W/m² | - |
| 1777993385 | 17.22° C | 54% | 1014 hPa | 0 mm | 0 m/s | 143 W/m² | - |
| 1777993079 | 16.67° C | 57% | 1013.8 hPa | 0 mm | 0 m/s | 186 W/m² | - |
| 1777992778 | 16.67° C | 55% | 1014.1 hPa | 0 mm | 0.45 m/s, 114° | 175 W/m² | - |
| 1777992475 | 17.22° C | 54% | 1014.1 hPa | 0 mm | 0 m/s | 164 W/m² | - |
| 1777992174 | 17.22° C | 51% | 1013.9 hPa | 0 mm | 0 m/s | 150 W/m² | - |
| 1777991870 | 16.67° C | 56% | 1013.8 hPa | 0 mm | 0 m/s | 142 W/m² | - |
| 1777991568 | 16.67° C | 59% | 1013.6 hPa | 0 mm | 0 m/s | 131 W/m² | - |
| 1777991265 | 16.67° C | 57% | 1013.6 hPa | 0 mm | 0 m/s | 121 W/m² | - |
| 1777990962 | 16.67° C | 55% | 1013.5 hPa | 0 mm | 0 m/s | 109 W/m² | - |
| 1777990660 | 16.67° C | 58% | 1013.3 hPa | 0 mm | 0 m/s | 100 W/m² | - |
| 1777990357 | 15.56° C | 60% | 1013.3 hPa | 0 mm | 0 m/s | 91 W/m² | - |
| 1777990052 | 15° C | 61% | 1013.5 hPa | 0 mm | 0 m/s | 82 W/m² | - |
| 1777989749 | 14.44° C | 62% | 1013.3 hPa | 0 mm | 0 m/s | 75 W/m² | - |
| 1777989446 | 14.44° C | 63% | 1013.2 hPa | 0 mm | 0 m/s | 67 W/m² | - |
| 1777989143 | 13.89° C | 68% | 1013 hPa | 0 mm | 0 m/s | 60 W/m² | - |
| 1777988839 | 14.44° C | 63% | 1013.3 hPa | 0 mm | 0.89 m/s, 212° | 54 W/m² | - |
| 1777988536 | 15° C | 61% | 1012.9 hPa | 0 mm | 0 m/s | 49 W/m² | - |
| 1777988233 | 13.33° C | 64% | 1013 hPa | 0 mm | 0 m/s | 44 W/m² | - |
* Rain latest hour (hover to see other rain measurements)
** Current wind speed in m/s (hover to see current wind gust speed)